createdAt,value
2018-06-30T00:02:25.525Z,51.16
2018-06-30T00:04:54.150Z,50.89
2018-06-30T00:07:23.517Z,51.07
2018-06-30T00:09:51.862Z,51.12
2018-06-30T00:12:20.336Z,51.11
2018-06-30T00:14:48.724Z,51.34
2018-06-30T00:17:17.102Z,51.53
2018-06-30T00:19:45.671Z,51.32
2018-06-30T00:22:14.122Z,51.67
2018-06-30T00:24:42.594Z,51.58
2018-06-30T00:27:16.107Z,51.75
2018-06-30T00:29:44.466Z,51.58
2018-06-30T00:32:12.856Z,51.69
2018-06-30T00:34:41.244Z,51.66
2018-06-30T00:37:09.674Z,51.42
2018-06-30T00:39:38.264Z,51.30
2018-06-30T00:42:06.600Z,52.04
2018-06-30T00:44:34.968Z,51.57
2018-06-30T00:47:03.970Z,52.08
2018-06-30T00:49:32.360Z,51.93
2018-06-30T00:52:00.960Z,52.02
2018-06-30T00:54:29.501Z,52.02
2018-06-30T00:56:57.894Z,52.43
2018-06-30T00:59:26.193Z,51.99
2018-06-30T01:01:54.660Z,52.14
2018-06-30T01:04:23.157Z,52.17
2018-06-30T01:06:51.534Z,52.06
2018-06-30T01:09:19.833Z,52.41
2018-06-30T01:11:48.399Z,52.61
2018-06-30T01:14:17.011Z,52.78
2018-06-30T01:16:45.572Z,52.81
2018-06-30T01:19:14.848Z,52.53
2018-06-30T01:21:43.244Z,52.61
2018-06-30T01:24:11.618Z,52.98
2018-06-30T01:26:39.965Z,53.00
2018-06-30T01:29:08.390Z,52.83
2018-06-30T01:31:36.819Z,53.03
2018-06-30T01:34:05.301Z,52.99
2018-06-30T01:36:33.630Z,53.30
2018-06-30T01:39:01.962Z,53.54
2018-06-30T01:41:30.396Z,53.11
2018-06-30T01:43:58.718Z,53.11
2018-06-30T01:46:27.057Z,53.01
2018-06-30T01:48:55.658Z,53.33
2018-06-30T01:51:24.032Z,53.33
2018-06-30T01:53:52.371Z,53.69
2018-06-30T01:56:20.760Z,53.33
2018-06-30T01:58:49.070Z,53.92
2018-06-30T02:01:22.586Z,53.62
2018-06-30T02:03:50.974Z,53.77
2018-06-30T02:06:19.352Z,54.02
2018-06-30T02:08:47.777Z,53.47
2018-06-30T02:11:16.208Z,53.77
2018-06-30T02:13:44.532Z,54.12
2018-06-30T02:16:12.984Z,53.99
2018-06-30T02:18:41.328Z,54.69
2018-06-30T02:21:09.700Z,54.70
2018-06-30T02:23:37.985Z,54.48
2018-06-30T02:26:06.354Z,54.58
2018-06-30T02:28:34.858Z,54.81
2018-06-30T02:31:03.191Z,54.49
2018-06-30T02:33:31.491Z,54.69
2018-06-30T02:35:59.919Z,54.83
2018-06-30T02:38:28.272Z,54.07
2018-06-30T02:40:56.730Z,54.06
2018-06-30T02:43:25.096Z,54.14
2018-06-30T02:45:53.928Z,54.13
2018-06-30T02:48:22.252Z,53.98
2018-06-30T02:50:50.723Z,54.25
2018-06-30T02:53:19.168Z,54.16
2018-06-30T02:55:47.546Z,54.58
2018-06-30T02:58:15.915Z,53.96
2018-06-30T03:00:44.340Z,54.84
2018-06-30T03:03:12.644Z,55.06
2018-06-30T03:05:41.061Z,55.74
2018-06-30T03:08:09.458Z,55.47
2018-06-30T03:10:37.838Z,55.55
2018-06-30T03:13:07.226Z,55.71
2018-06-30T03:15:35.624Z,55.05
2018-06-30T03:18:03.980Z,54.85
2018-06-30T03:20:32.394Z,55.15
2018-06-30T03:23:05.992Z,55.37
2018-06-30T03:25:34.310Z,55.40
2018-06-30T03:28:02.608Z,56.11
2018-06-30T03:30:31.942Z,55.71
2018-06-30T03:33:00.402Z,56.16
2018-06-30T03:35:28.768Z,55.65
2018-06-30T03:37:57.674Z,54.89
2018-06-30T03:40:26.057Z,55.17
2018-06-30T03:42:54.548Z,55.28
2018-06-30T03:45:22.930Z,55.27
2018-06-30T03:47:51.448Z,54.55
2018-06-30T03:50:19.805Z,54.23
2018-06-30T03:52:48.190Z,54.49
2018-06-30T03:55:16.664Z,54.70
2018-06-30T03:57:45.050Z,54.32
2018-06-30T04:00:13.378Z,54.78
2018-06-30T04:02:41.798Z,54.59
2018-06-30T04:05:10.160Z,54.26
2018-06-30T04:07:38.616Z,54.92
2018-06-30T04:10:07.092Z,54.86
2018-06-30T04:12:35.444Z,55.15
2018-06-30T04:15:03.796Z,55.67
2018-06-30T04:17:32.342Z,55.91
2018-06-30T04:20:00.696Z,55.18
2018-06-30T04:22:29.032Z,54.48
2018-06-30T04:24:57.476Z,54.37
2018-06-30T04:27:26.445Z,54.53
2018-06-30T04:29:55.523Z,54.75
2018-06-30T04:32:24.128Z,54.31
2018-06-30T04:34:52.890Z,54.82
2018-06-30T04:37:21.260Z,54.25
2018-06-30T04:39:49.609Z,54.13
2018-06-30T04:42:31.742Z,54.89
2018-06-30T04:45:00.662Z,54.34
2018-06-30T04:47:30.781Z,54.51
2018-06-30T04:49:59.511Z,54.42
2018-06-30T04:52:28.968Z,54.31
2018-06-30T04:54:57.560Z,53.88
2018-06-30T04:57:26.346Z,54.33
2018-06-30T04:59:56.241Z,54.74
2018-06-30T05:02:24.831Z,54.02
2018-06-30T05:04:53.557Z,53.88
2018-06-30T05:07:22.031Z,53.47
2018-06-30T05:09:50.657Z,53.72
2018-06-30T05:12:19.154Z,53.78
2018-06-30T05:14:48.386Z,53.49
2018-06-30T05:17:16.938Z,54.04
2018-06-30T05:19:45.540Z,53.49
2018-06-30T05:22:14.323Z,53.31
2018-06-30T05:24:42.781Z,53.74
2018-06-30T05:27:11.269Z,52.99
2018-06-30T05:29:39.679Z,53.18
2018-06-30T05:32:08.161Z,53.17
2018-06-30T05:34:36.916Z,53.28
2018-06-30T05:37:06.268Z,53.49
2018-06-30T05:39:35.351Z,53.33
2018-06-30T05:44:56.635Z,53.51
2018-06-30T05:47:25.069Z,53.27
2018-06-30T05:49:53.592Z,52.59
2018-06-30T05:52:22.128Z,51.79
2018-06-30T05:54:50.644Z,52.06
2018-06-30T05:57:19.398Z,51.37
2018-06-30T05:59:48.181Z,50.70
2018-06-30T06:02:16.703Z,50.49
2018-06-30T06:04:45.191Z,51.17
2018-06-30T06:07:13.751Z,51.39
2018-06-30T06:09:42.634Z,50.59
2018-06-30T06:12:11.885Z,50.96
2018-06-30T06:14:40.739Z,49.30
2018-06-30T06:17:09.468Z,48.86
2018-06-30T06:19:37.813Z,48.20
2018-06-30T06:22:06.663Z,46.91
2018-06-30T06:24:35.538Z,47.33
2018-06-30T06:27:04.248Z,47.35
2018-06-30T06:29:32.946Z,47.16
2018-06-30T06:32:01.532Z,46.41
2018-06-30T06:34:30.390Z,44.11
2018-06-30T06:36:58.800Z,43.81
2018-06-30T06:39:27.165Z,44.05
2018-06-30T06:41:57.454Z,42.85
2018-06-30T06:44:25.990Z,43.45
2018-06-30T06:46:54.487Z,42.72
2018-06-30T06:49:22.987Z,43.58
2018-06-30T06:51:51.573Z,42.72
2018-06-30T06:54:20.253Z,41.63
2018-06-30T06:56:50.235Z,41.22
2018-06-30T06:59:18.790Z,41.16
2018-06-30T07:01:47.456Z,40.32
2018-06-30T07:04:15.828Z,40.71
2018-06-30T07:06:44.394Z,39.25
2018-06-30T07:09:13.247Z,39.80
2018-06-30T07:11:41.987Z,39.47
2018-06-30T07:14:11.100Z,37.42
2018-06-30T07:16:39.594Z,36.77
2018-06-30T07:19:08.124Z,36.10
2018-06-30T07:21:46.380Z,36.47
2018-06-30T07:24:16.027Z,34.97
2018-06-30T07:26:45.674Z,35.21
2018-06-30T07:29:15.324Z,35.31
2018-06-30T07:31:45.144Z,34.11
2018-06-30T07:34:20.176Z,34.58
2018-06-30T07:36:53.166Z,33.92
2018-06-30T07:39:22.168Z,33.28
2018-06-30T07:41:53.592Z,32.56
2018-06-30T07:44:24.395Z,32.66
2018-06-30T07:46:53.757Z,32.64
2018-06-30T07:49:23.766Z,33.04
2018-06-30T07:52:00.102Z,32.96
2018-06-30T07:54:29.392Z,33.21
2018-06-30T07:57:01.170Z,30.84
2018-06-30T07:59:31.001Z,31.03
2018-06-30T08:02:13.191Z,31.27
2018-06-30T08:04:42.502Z,31.21
2018-06-30T08:07:13.914Z,31.44
2018-06-30T08:09:45.317Z,31.75
2018-06-30T08:15:10.548Z,29.84
2018-06-30T08:17:40.356Z,30.63
2018-06-30T08:20:12.684Z,30.04
2018-06-30T08:34:28.972Z,30.19
2018-06-30T08:37:02.127Z,29.14
2018-06-30T08:39:31.796Z,29.45
2018-06-30T08:42:14.952Z,30.05
2018-06-30T08:44:48.896Z,29.69
2018-06-30T08:47:19.854Z,30.21
2018-06-30T08:49:57.675Z,30.71
2018-06-30T08:52:31.860Z,29.90
2018-06-30T08:55:10.357Z,30.03
2018-06-30T08:57:47.853Z,30.31
2018-06-30T09:00:17.882Z,30.09
2018-06-30T09:02:49.314Z,29.34
2018-06-30T09:05:18.881Z,29.61
2018-06-30T09:07:52.068Z,29.80
2018-06-30T09:10:25.016Z,30.55
2018-06-30T09:12:53.960Z,30.17
2018-06-30T09:15:22.492Z,30.44
2018-06-30T09:17:51.044Z,30.19
2018-06-30T09:20:20.500Z,30.29
2018-06-30T09:22:49.945Z,29.44
2018-06-30T09:25:18.574Z,30.43
2018-06-30T09:27:47.062Z,30.28
2018-06-30T09:30:15.448Z,30.65
2018-06-30T09:32:44.340Z,30.50
2018-06-30T09:35:14.968Z,30.43
2018-06-30T09:37:43.480Z,30.37
2018-06-30T09:40:12.070Z,29.69
2018-06-30T09:42:40.695Z,29.61
2018-06-30T09:45:09.222Z,29.83
2018-06-30T09:47:37.943Z,30.63
2018-06-30T09:50:06.730Z,29.88
2018-06-30T09:52:35.347Z,30.22
2018-06-30T09:55:04.106Z,29.34
2018-06-30T09:57:33.088Z,29.32
2018-06-30T10:00:01.572Z,29.50
2018-06-30T10:02:30.279Z,29.62
2018-06-30T10:04:59.329Z,29.45
2018-06-30T10:07:27.987Z,29.37
2018-06-30T10:09:56.777Z,28.54
2018-06-30T10:12:25.603Z,28.83
2018-06-30T10:14:54.121Z,28.75
2018-06-30T10:17:22.523Z,28.06
2018-06-30T10:19:51.427Z,27.90
2018-06-30T10:22:20.249Z,27.33
2018-06-30T10:24:49.470Z,27.62
2018-06-30T10:27:17.989Z,27.96
2018-06-30T10:29:46.743Z,27.24
2018-06-30T10:32:25.497Z,27.61
2018-06-30T10:34:53.969Z,26.85
2018-06-30T10:37:22.583Z,26.52
2018-06-30T10:39:51.907Z,26.71
2018-06-30T10:42:21.567Z,26.21
2018-06-30T10:44:50.387Z,26.41
2018-06-30T10:47:19.237Z,27.24
2018-06-30T10:49:49.015Z,27.42
2018-06-30T10:52:17.532Z,26.83
2018-06-30T10:54:46.036Z,26.58
2018-06-30T10:57:15.666Z,26.68
2018-06-30T10:59:44.630Z,27.25
2018-06-30T11:02:13.764Z,26.39
2018-06-30T11:04:44.023Z,26.24
2018-06-30T11:07:12.904Z,26.22
2018-06-30T11:09:42.682Z,25.08
2018-06-30T11:12:29.764Z,25.64
2018-06-30T11:14:59.091Z,25.80
2018-06-30T11:17:28.603Z,24.87
2018-06-30T11:19:57.700Z,25.14
2018-06-30T11:22:27.308Z,26.25
2018-06-30T11:24:56.298Z,25.32
2018-06-30T11:27:26.074Z,24.91
2018-06-30T11:29:54.880Z,24.70
2018-06-30T11:32:24.139Z,24.86
2018-06-30T11:34:53.098Z,24.76
2018-06-30T11:37:22.446Z,25.19
2018-06-30T11:39:51.032Z,24.59
2018-06-30T11:42:19.450Z,23.95
2018-06-30T11:44:48.059Z,23.23
2018-06-30T11:47:17.717Z,24.45
2018-06-30T11:49:46.731Z,23.35
2018-06-30T11:52:15.189Z,22.96
2018-06-30T11:54:43.680Z,22.87
2018-06-30T11:57:12.137Z,22.26
2018-06-30T11:59:40.771Z,22.74
2018-06-30T12:02:09.691Z,22.61
2018-06-30T12:04:38.183Z,21.99
2018-06-30T12:07:07.435Z,22.11
2018-06-30T12:09:35.773Z,22.40
2018-06-30T12:12:04.297Z,22.82
2018-06-30T12:14:32.751Z,21.56
2018-06-30T12:17:01.812Z,21.11
2018-06-30T12:19:31.591Z,21.07
2018-06-30T12:22:01.245Z,21.52
2018-06-30T12:24:30.095Z,21.92
2018-06-30T12:26:58.620Z,22.32
2018-06-30T12:29:27.159Z,21.56
2018-06-30T12:31:55.682Z,21.85
2018-06-30T12:34:24.101Z,20.55
2018-06-30T12:36:52.594Z,20.37
2018-06-30T12:39:21.038Z,21.39
2018-06-30T12:41:49.529Z,21.31
2018-06-30T12:44:18.004Z,20.80
2018-06-30T12:46:46.580Z,20.43
2018-06-30T12:49:15.154Z,21.59
2018-06-30T12:51:43.750Z,22.24
2018-06-30T12:54:12.407Z,21.93
2018-06-30T12:56:40.652Z,21.97
2018-06-30T12:59:09.264Z,22.16
2018-06-30T13:01:37.790Z,22.28
2018-06-30T13:04:06.259Z,21.35
2018-06-30T13:06:35.117Z,21.47
2018-06-30T13:09:04.672Z,22.09
2018-06-30T13:11:33.456Z,22.01
2018-06-30T13:14:01.904Z,21.48
2018-06-30T13:16:30.326Z,21.60
2018-06-30T13:18:59.093Z,22.05
2018-06-30T13:21:27.643Z,21.61
2018-06-30T13:23:56.099Z,21.22
2018-06-30T13:26:24.638Z,21.57
2018-06-30T13:28:53.279Z,21.94
2018-06-30T13:31:21.709Z,21.34
2018-06-30T13:33:50.172Z,21.47
2018-06-30T13:36:18.622Z,21.14
2018-06-30T13:38:47.084Z,21.22
2018-06-30T13:41:15.644Z,21.64
2018-06-30T13:43:44.125Z,21.75
2018-06-30T13:46:12.864Z,21.76
2018-06-30T13:48:41.310Z,21.25
2018-06-30T13:51:09.943Z,21.17
2018-06-30T13:53:38.383Z,22.31
2018-06-30T13:56:07.336Z,22.37
2018-06-30T13:58:35.839Z,22.15
2018-06-30T14:01:04.379Z,22.08
2018-06-30T14:03:32.789Z,21.84
2018-06-30T14:06:01.266Z,21.91
2018-06-30T14:08:29.679Z,21.51
2018-06-30T14:10:59.081Z,22.02
2018-06-30T14:13:28.449Z,21.76
2018-06-30T14:15:56.945Z,21.48
2018-06-30T14:18:26.737Z,21.95
2018-06-30T14:20:55.419Z,22.33
2018-06-30T14:23:25.313Z,22.85
2018-06-30T14:25:54.640Z,23.10
2018-06-30T14:28:24.047Z,22.86
2018-06-30T14:30:52.662Z,22.10
2018-06-30T14:33:26.621Z,22.30
2018-06-30T14:35:55.571Z,21.98
2018-06-30T14:38:24.226Z,22.21
2018-06-30T14:40:53.178Z,21.75
2018-06-30T14:43:21.756Z,22.06
2018-06-30T14:45:50.090Z,21.41
2018-06-30T14:48:18.794Z,22.18
2018-06-30T14:50:47.449Z,21.27
2018-06-30T14:53:16.040Z,21.10
2018-06-30T14:55:44.516Z,22.26
2018-06-30T14:58:12.932Z,21.93
2018-06-30T15:00:41.458Z,22.83
2018-06-30T15:03:10.255Z,22.20
2018-06-30T15:05:38.838Z,22.40
2018-06-30T15:08:07.609Z,22.57
2018-06-30T15:10:36.209Z,22.58
2018-06-30T15:13:05.092Z,23.45
2018-06-30T15:15:33.576Z,23.46
2018-06-30T15:18:02.069Z,23.54
2018-06-30T15:20:30.551Z,23.18
2018-06-30T15:22:59.218Z,23.55
2018-06-30T15:25:27.761Z,23.32
2018-06-30T15:27:56.544Z,24.37
2018-06-30T15:30:26.317Z,24.63
2018-06-30T15:32:55.290Z,24.57
2018-06-30T15:35:24.079Z,24.27
2018-06-30T15:37:52.535Z,24.46
2018-06-30T15:40:20.962Z,24.88
2018-06-30T15:42:49.759Z,25.55
2018-06-30T15:45:20.660Z,25.23
2018-06-30T15:47:50.232Z,26.02
2018-06-30T15:50:18.945Z,25.81
2018-06-30T15:52:47.704Z,26.02
2018-06-30T15:55:16.419Z,26.12
2018-06-30T15:57:46.352Z,26.65
2018-06-30T16:00:15.371Z,25.66
2018-06-30T16:02:45.407Z,26.10
2018-06-30T16:05:15.041Z,26.11
2018-06-30T16:07:50.133Z,26.00
2018-06-30T16:10:19.809Z,25.55
2018-06-30T16:12:48.352Z,26.09
2018-06-30T16:15:18.421Z,26.70
2018-06-30T16:17:47.008Z,26.37
2018-06-30T16:20:15.504Z,26.89
2018-06-30T16:22:44.028Z,26.20
2018-06-30T16:25:12.502Z,26.90
2018-06-30T16:27:41.135Z,27.05
2018-06-30T16:30:09.968Z,26.88
2018-06-30T16:32:38.753Z,26.85
2018-06-30T16:35:08.323Z,26.50
2018-06-30T16:37:38.185Z,26.17
2018-06-30T16:40:07.889Z,26.73
2018-06-30T16:42:36.827Z,26.83
2018-06-30T16:45:06.645Z,26.35
2018-06-30T16:47:35.419Z,26.85
2018-06-30T16:50:04.171Z,27.13
2018-06-30T16:52:32.557Z,27.31
2018-06-30T16:55:01.145Z,26.38
2018-06-30T16:57:29.821Z,26.98
2018-06-30T16:59:58.515Z,26.24
2018-06-30T17:02:27.039Z,26.99
2018-06-30T17:04:55.580Z,26.52
2018-06-30T17:07:24.002Z,27.04
2018-06-30T17:09:52.445Z,26.86
2018-06-30T17:12:21.043Z,26.94
2018-06-30T17:14:49.547Z,27.44
2018-06-30T17:17:18.077Z,27.46
2018-06-30T17:19:46.877Z,27.78
2018-06-30T17:22:15.859Z,27.51
2018-06-30T17:24:44.291Z,27.46
2018-06-30T17:27:12.876Z,27.57
2018-06-30T17:29:41.400Z,26.82
2018-06-30T17:32:09.939Z,27.31
2018-06-30T17:34:38.771Z,27.38
2018-06-30T17:37:07.437Z,27.73
2018-06-30T17:39:36.135Z,27.29
2018-06-30T17:42:04.977Z,27.10
2018-06-30T17:44:33.669Z,27.39
2018-06-30T17:47:07.203Z,27.82
2018-06-30T17:49:35.936Z,27.64
2018-06-30T17:52:06.395Z,27.61
2018-06-30T17:54:35.291Z,27.98
2018-06-30T17:57:05.585Z,28.17
2018-06-30T17:59:38.963Z,28.35
2018-06-30T18:02:08.165Z,28.46
2018-06-30T18:04:37.091Z,28.38
2018-06-30T18:07:05.855Z,28.24
2018-06-30T18:09:35.349Z,28.25
2018-06-30T18:12:03.811Z,28.53
2018-06-30T18:14:32.489Z,28.51
2018-06-30T18:17:03.150Z,28.55
2018-06-30T18:19:31.769Z,28.56
2018-06-30T18:22:00.635Z,28.12
2018-06-30T18:24:29.165Z,27.83
2018-06-30T18:26:57.984Z,28.88
2018-06-30T18:29:27.658Z,28.16
2018-06-30T18:31:56.354Z,28.18
2018-06-30T18:34:24.994Z,28.96
2018-06-30T18:36:53.795Z,28.48
2018-06-30T18:39:22.798Z,28.69
2018-06-30T18:41:53.419Z,29.32
2018-06-30T18:44:22.105Z,29.51
2018-06-30T18:46:51.885Z,29.11
2018-06-30T18:49:21.743Z,29.56
2018-06-30T18:51:50.473Z,29.77
2018-06-30T18:54:19.474Z,29.23
2018-06-30T18:56:48.005Z,29.63
2018-06-30T18:59:18.766Z,30.08
2018-06-30T19:01:48.182Z,29.73
2018-06-30T19:04:16.887Z,29.93
2018-06-30T19:06:46.908Z,29.82
2018-06-30T19:09:15.741Z,29.42
2018-06-30T19:11:44.405Z,29.40
2018-06-30T19:14:13.419Z,29.25
2018-06-30T19:16:42.326Z,29.95
2018-06-30T19:19:11.053Z,29.82
2018-06-30T19:21:40.443Z,29.86
2018-06-30T19:24:10.452Z,30.40
2018-06-30T19:26:39.691Z,29.97
2018-06-30T19:29:08.278Z,30.56
2018-06-30T19:31:37.214Z,30.54
2018-06-30T19:34:05.901Z,30.38
2018-06-30T19:36:34.860Z,30.34
2018-06-30T19:39:03.867Z,30.07
2018-06-30T19:41:32.539Z,30.47
2018-06-30T19:44:02.113Z,30.43
2018-06-30T19:46:31.055Z,30.51
2018-06-30T19:49:00.260Z,30.71
2018-06-30T19:51:29.051Z,31.39
2018-06-30T19:53:58.773Z,31.81
2018-06-30T19:56:27.376Z,31.64
2018-06-30T19:58:57.485Z,31.50
2018-06-30T20:01:31.945Z,31.07
2018-06-30T20:04:03.189Z,31.92
2018-06-30T20:06:32.450Z,32.01
2018-06-30T20:09:01.043Z,32.68
2018-06-30T20:11:29.656Z,32.73
2018-06-30T20:13:58.736Z,32.20
2018-06-30T20:16:27.561Z,32.58
2018-06-30T20:18:58.752Z,32.64
2018-06-30T20:24:43.293Z,32.73
2018-06-30T20:27:12.551Z,32.81
2018-06-30T20:29:41.034Z,33.00
2018-06-30T20:32:09.794Z,32.85
2018-06-30T20:34:40.124Z,32.80
2018-06-30T20:37:09.079Z,33.12
2018-06-30T20:39:38.023Z,33.04
2018-06-30T20:42:07.759Z,33.54
2018-06-30T20:44:37.227Z,34.33
2018-06-30T20:47:14.233Z,34.05
2018-06-30T20:49:44.686Z,33.72
2018-06-30T20:52:15.501Z,33.86
2018-06-30T20:54:44.275Z,34.13
2018-06-30T20:57:12.953Z,34.15
2018-06-30T20:59:41.909Z,34.43
2018-06-30T21:02:11.411Z,34.67
2018-06-30T21:04:42.169Z,34.67
2018-06-30T21:07:11.653Z,34.09
2018-06-30T21:09:44.243Z,34.04
2018-06-30T21:12:12.961Z,34.40
2018-06-30T21:14:41.808Z,34.02
2018-06-30T21:17:10.533Z,34.17
2018-06-30T21:19:39.645Z,33.97
2018-06-30T21:22:08.079Z,34.14
2018-06-30T21:24:36.507Z,34.34
2018-06-30T21:27:05.239Z,34.52
2018-06-30T21:29:34.167Z,34.74
2018-06-30T21:32:02.859Z,34.86
2018-06-30T21:34:34.003Z,35.04
2018-06-30T21:37:02.775Z,35.00
2018-06-30T21:39:31.657Z,35.02
2018-06-30T21:42:10.136Z,35.33
2018-06-30T21:44:39.648Z,35.65
2018-06-30T21:47:08.212Z,35.12
2018-06-30T21:49:36.705Z,35.46
2018-06-30T21:52:05.131Z,36.05
2018-06-30T21:54:33.631Z,36.25
2018-06-30T21:57:02.417Z,36.08
2018-06-30T21:59:31.705Z,35.58
2018-06-30T22:02:00.265Z,35.86
2018-06-30T22:04:28.645Z,35.61
2018-06-30T22:06:57.269Z,35.54
2018-06-30T22:09:25.969Z,35.72
2018-06-30T22:11:54.397Z,36.24
2018-06-30T22:14:24.872Z,35.71
2018-06-30T22:16:53.303Z,35.81
2018-06-30T22:19:24.194Z,35.57
2018-06-30T22:21:53.007Z,35.39
2018-06-30T22:24:21.766Z,35.51
2018-06-30T22:26:50.213Z,35.87
2018-06-30T22:29:18.615Z,35.86
2018-06-30T22:32:00.763Z,35.88
2018-06-30T22:34:29.229Z,35.92
2018-06-30T22:36:57.615Z,35.81
2018-06-30T22:39:37.775Z,36.08
2018-06-30T22:42:06.429Z,36.17
2018-06-30T22:44:34.900Z,36.61
2018-06-30T22:47:03.983Z,36.38
2018-06-30T22:49:34.660Z,36.39
2018-06-30T22:52:13.004Z,36.49
2018-06-30T22:54:41.657Z,37.12
2018-06-30T22:57:10.315Z,37.15
2018-06-30T22:59:39.719Z,36.86
2018-06-30T23:02:08.398Z,37.72
2018-06-30T23:04:36.957Z,37.88
2018-06-30T23:07:07.411Z,37.76
2018-06-30T23:09:35.740Z,37.31
2018-06-30T23:15:20.187Z,37.71
2018-06-30T23:17:48.690Z,37.45
2018-06-30T23:20:17.303Z,38.00
2018-06-30T23:22:56.056Z,37.90
2018-06-30T23:25:26.662Z,37.95
2018-06-30T23:27:55.801Z,37.64
2018-06-30T23:30:25.560Z,38.12
2018-06-30T23:32:55.106Z,38.08
2018-06-30T23:35:26.574Z,38.29
2018-06-30T23:37:57.356Z,38.51
2018-06-30T23:40:26.629Z,38.51
2018-06-30T23:46:01.386Z,38.79
2018-06-30T23:48:29.924Z,38.52
2018-06-30T23:50:59.324Z,39.12
2018-06-30T23:53:27.946Z,39.24
2018-06-30T23:55:57.018Z,39.25
2018-06-30T23:58:25.496Z,39.75
